sensor_id;sensor_type;location;lat;lon;timestamp;P1;durP1;ratioP1;P2;durP2;ratioP2
4616;SDS011;2321;42.704;23.384;2022-08-19T00:00:17;4.27;;;3.97;;
4616;SDS011;2321;42.704;23.384;2022-08-19T00:02:45;5.30;;;4.80;;
4616;SDS011;2321;42.704;23.384;2022-08-19T00:05:14;4.77;;;4.10;;
4616;SDS011;2321;42.704;23.384;2022-08-19T00:07:41;3.87;;;3.40;;
4616;SDS011;2321;42.704;23.384;2022-08-19T00:10:09;3.23;;;2.93;;
4616;SDS011;2321;42.704;23.384;2022-08-19T00:12:36;6.00;;;4.00;;
4616;SDS011;2321;42.704;23.384;2022-08-19T00:15:03;4.03;;;3.70;;
4616;SDS011;2321;42.704;23.384;2022-08-19T00:17:30;19.57;;;5.30;;
4616;SDS011;2321;42.704;23.384;2022-08-19T00:19:58;7.10;;;3.60;;
4616;SDS011;2321;42.704;23.384;2022-08-19T00:22:25;4.20;;;3.90;;
4616;SDS011;2321;42.704;23.384;2022-08-19T00:24:53;10.87;;;3.93;;
4616;SDS011;2321;42.704;23.384;2022-08-19T00:27:20;3.97;;;3.67;;
4616;SDS011;2321;42.704;23.384;2022-08-19T00:29:46;4.63;;;4.20;;
4616;SDS011;2321;42.704;23.384;2022-08-19T00:32:13;3.53;;;3.23;;
4616;SDS011;2321;42.704;23.384;2022-08-19T00:34:40;4.77;;;4.37;;
4616;SDS011;2321;42.704;23.384;2022-08-19T00:37:08;5.93;;;4.07;;
4616;SDS011;2321;42.704;23.384;2022-08-19T00:39:34;4.90;;;4.00;;
4616;SDS011;2321;42.704;23.384;2022-08-19T00:42:01;5.17;;;4.67;;
4616;SDS011;2321;42.704;23.384;2022-08-19T00:44:28;3.70;;;3.40;;
4616;SDS011;2321;42.704;23.384;2022-08-19T00:46:56;4.77;;;4.37;;
4616;SDS011;2321;42.704;23.384;2022-08-19T00:49:25;3.93;;;3.57;;
4616;SDS011;2321;42.704;23.384;2022-08-19T00:51:57;4.63;;;4.10;;
4616;SDS011;2321;42.704;23.384;2022-08-19T00:54:26;5.67;;;4.40;;
4616;SDS011;2321;42.704;23.384;2022-08-19T00:56:53;3.90;;;3.50;;
4616;SDS011;2321;42.704;23.384;2022-08-19T00:59:19;5.07;;;4.57;;
4616;SDS011;2321;42.704;23.384;2022-08-19T01:01:47;7.17;;;3.90;;
4616;SDS011;2321;42.704;23.384;2022-08-19T01:04:14;4.77;;;4.30;;
4616;SDS011;2321;42.704;23.384;2022-08-19T01:06:40;4.07;;;3.70;;
4616;SDS011;2321;42.704;23.384;2022-08-19T01:09:08;9.00;;;3.73;;
4616;SDS011;2321;42.704;23.384;2022-08-19T01:11:38;9.20;;;3.90;;
4616;SDS011;2321;42.704;23.384;2022-08-19T01:14:10;9.03;;;4.10;;
4616;SDS011;2321;42.704;23.384;2022-08-19T01:16:38;8.47;;;4.20;;
4616;SDS011;2321;42.704;23.384;2022-08-19T01:19:09;4.37;;;3.97;;
4616;SDS011;2321;42.704;23.384;2022-08-19T01:21:40;9.93;;;4.27;;
4616;SDS011;2321;42.704;23.384;2022-08-19T01:24:09;4.27;;;3.87;;
4616;SDS011;2321;42.704;23.384;2022-08-19T01:26:38;5.40;;;4.40;;
4616;SDS011;2321;42.704;23.384;2022-08-19T01:29:06;6.87;;;4.23;;
4616;SDS011;2321;42.704;23.384;2022-08-19T01:31:33;3.90;;;3.60;;
4616;SDS011;2321;42.704;23.384;2022-08-19T01:34:02;4.17;;;3.90;;
4616;SDS011;2321;42.704;23.384;2022-08-19T01:36:31;5.10;;;4.00;;
4616;SDS011;2321;42.704;23.384;2022-08-19T01:38:59;5.30;;;4.80;;
4616;SDS011;2321;42.704;23.384;2022-08-19T01:41:28;6.23;;;4.50;;
4616;SDS011;2321;42.704;23.384;2022-08-19T01:43:55;5.47;;;4.17;;
4616;SDS011;2321;42.704;23.384;2022-08-19T01:46:22;4.77;;;4.20;;
4616;SDS011;2321;42.704;23.384;2022-08-19T01:48:49;4.73;;;4.30;;
4616;SDS011;2321;42.704;23.384;2022-08-19T01:51:15;3.80;;;3.50;;
4616;SDS011;2321;42.704;23.384;2022-08-19T01:53:45;7.00;;;5.63;;
4616;SDS011;2321;42.704;23.384;2022-08-19T01:56:13;8.47;;;5.10;;
4616;SDS011;2321;42.704;23.384;2022-08-19T01:58:44;4.23;;;3.93;;
4616;SDS011;2321;42.704;23.384;2022-08-19T02:01:16;6.37;;;4.47;;
4616;SDS011;2321;42.704;23.384;2022-08-19T02:03:42;4.13;;;3.83;;
4616;SDS011;2321;42.704;23.384;2022-08-19T02:06:09;4.77;;;4.10;;
4616;SDS011;2321;42.704;23.384;2022-08-19T02:08:36;3.87;;;3.57;;
4616;SDS011;2321;42.704;23.384;2022-08-19T02:11:04;4.23;;;3.87;;
4616;SDS011;2321;42.704;23.384;2022-08-19T02:13:31;5.03;;;4.63;;
4616;SDS011;2321;42.704;23.384;2022-08-19T02:15:59;6.70;;;4.43;;
4616;SDS011;2321;42.704;23.384;2022-08-19T02:18:26;4.70;;;4.20;;
4616;SDS011;2321;42.704;23.384;2022-08-19T02:20:53;4.30;;;4.00;;
4616;SDS011;2321;42.704;23.384;2022-08-19T02:23:20;4.63;;;4.23;;
4616;SDS011;2321;42.704;23.384;2022-08-19T02:25:47;5.43;;;4.33;;
4616;SDS011;2321;42.704;23.384;2022-08-19T02:28:14;4.37;;;3.97;;
4616;SDS011;2321;42.704;23.384;2022-08-19T02:30:41;6.53;;;4.53;;
4616;SDS011;2321;42.704;23.384;2022-08-19T02:33:09;5.20;;;4.70;;
4616;SDS011;2321;42.704;23.384;2022-08-19T02:35:36;5.10;;;4.57;;
4616;SDS011;2321;42.704;23.384;2022-08-19T02:38:02;8.23;;;4.20;;
4616;SDS011;2321;42.704;23.384;2022-08-19T02:40:50;5.87;;;4.30;;
4616;SDS011;2321;42.704;23.384;2022-08-19T02:43:18;3.87;;;3.57;;
4616;SDS011;2321;42.704;23.384;2022-08-19T02:45:46;6.30;;;4.20;;
4616;SDS011;2321;42.704;23.384;2022-08-19T02:48:16;4.77;;;4.37;;
4616;SDS011;2321;42.704;23.384;2022-08-19T02:50:43;4.90;;;4.53;;
4616;SDS011;2321;42.704;23.384;2022-08-19T02:53:12;10.93;;;5.43;;
4616;SDS011;2321;42.704;23.384;2022-08-19T02:55:42;5.07;;;4.43;;
4616;SDS011;2321;42.704;23.384;2022-08-19T02:58:09;6.93;;;4.90;;
4616;SDS011;2321;42.704;23.384;2022-08-19T03:00:40;7.30;;;4.20;;
4616;SDS011;2321;42.704;23.384;2022-08-19T03:03:07;6.83;;;4.37;;
4616;SDS011;2321;42.704;23.384;2022-08-19T03:05:35;5.70;;;4.63;;
4616;SDS011;2321;42.704;23.384;2022-08-19T03:08:02;5.97;;;5.17;;
4616;SDS011;2321;42.704;23.384;2022-08-19T03:10:30;6.37;;;4.90;;
4616;SDS011;2321;42.704;23.384;2022-08-19T03:12:57;7.73;;;5.40;;
4616;SDS011;2321;42.704;23.384;2022-08-19T03:15:24;4.53;;;4.23;;
4616;SDS011;2321;42.704;23.384;2022-08-19T03:17:51;5.37;;;4.83;;
4616;SDS011;2321;42.704;23.384;2022-08-19T03:20:18;6.20;;;4.60;;
4616;SDS011;2321;42.704;23.384;2022-08-19T03:22:46;9.50;;;4.27;;
4616;SDS011;2321;42.704;23.384;2022-08-19T03:25:12;6.70;;;5.33;;
4616;SDS011;2321;42.704;23.384;2022-08-19T03:27:39;5.23;;;4.60;;
4616;SDS011;2321;42.704;23.384;2022-08-19T03:30:06;16.00;;;5.90;;
4616;SDS011;2321;42.704;23.384;2022-08-19T03:32:34;7.00;;;4.77;;
4616;SDS011;2321;42.704;23.384;2022-08-19T03:35:00;5.27;;;4.53;;
4616;SDS011;2321;42.704;23.384;2022-08-19T03:37:27;8.40;;;5.10;;
4616;SDS011;2321;42.704;23.384;2022-08-19T03:39:55;5.87;;;4.77;;
4616;SDS011;2321;42.704;23.384;2022-08-19T03:42:22;4.97;;;4.50;;
4616;SDS011;2321;42.704;23.384;2022-08-19T03:44:50;7.13;;;4.93;;
4616;SDS011;2321;42.704;23.384;2022-08-19T03:47:16;6.40;;;5.53;;
4616;SDS011;2321;42.704;23.384;2022-08-19T03:49:43;6.63;;;4.80;;
4616;SDS011;2321;42.704;23.384;2022-08-19T03:52:10;4.10;;;3.77;;
4616;SDS011;2321;42.704;23.384;2022-08-19T03:54:37;3.40;;;3.20;;
4616;SDS011;2321;42.704;23.384;2022-08-19T03:57:06;7.30;;;4.87;;
4616;SDS011;2321;42.704;23.384;2022-08-19T03:59:34;6.00;;;4.60;;
4616;SDS011;2321;42.704;23.384;2022-08-19T04:02:05;5.90;;;4.80;;
4616;SDS011;2321;42.704;23.384;2022-08-19T04:04:34;10.10;;;5.07;;
4616;SDS011;2321;42.704;23.384;2022-08-19T04:07:01;5.47;;;4.93;;
4616;SDS011;2321;42.704;23.384;2022-08-19T04:09:27;4.63;;;4.30;;
4616;SDS011;2321;42.704;23.384;2022-08-19T04:11:55;5.80;;;5.07;;
4616;SDS011;2321;42.704;23.384;2022-08-19T04:14:24;7.73;;;4.97;;
4616;SDS011;2321;42.704;23.384;2022-08-19T04:16:51;7.23;;;4.20;;
4616;SDS011;2321;42.704;23.384;2022-08-19T04:19:18;7.10;;;5.07;;
4616;SDS011;2321;42.704;23.384;2022-08-19T04:21:47;5.63;;;4.13;;
4616;SDS011;2321;42.704;23.384;2022-08-19T04:24:15;6.53;;;5.13;;
4616;SDS011;2321;42.704;23.384;2022-08-19T04:26:42;5.83;;;4.70;;
4616;SDS011;2321;42.704;23.384;2022-08-19T04:29:11;4.80;;;4.10;;
4616;SDS011;2321;42.704;23.384;2022-08-19T04:31:42;6.33;;;5.10;;
4616;SDS011;2321;42.704;23.384;2022-08-19T04:34:12;6.27;;;4.53;;
4616;SDS011;2321;42.704;23.384;2022-08-19T04:36:41;4.40;;;4.10;;
4616;SDS011;2321;42.704;23.384;2022-08-19T04:39:11;4.90;;;4.50;;
4616;SDS011;2321;42.704;23.384;2022-08-19T04:41:41;7.20;;;5.27;;
4616;SDS011;2321;42.704;23.384;2022-08-19T04:44:25;5.20;;;4.80;;
4616;SDS011;2321;42.704;23.384;2022-08-19T04:46:57;4.13;;;3.93;;
4616;SDS011;2321;42.704;23.384;2022-08-19T04:49:24;16.13;;;5.00;;
4616;SDS011;2321;42.704;23.384;2022-08-19T04:51:52;5.50;;;4.90;;
4616;SDS011;2321;42.704;23.384;2022-08-19T04:54:20;4.20;;;3.90;;
4616;SDS011;2321;42.704;23.384;2022-08-19T04:56:48;4.83;;;4.37;;
4616;SDS011;2321;42.704;23.384;2022-08-19T04:59:16;5.00;;;4.50;;
4616;SDS011;2321;42.704;23.384;2022-08-19T05:01:45;5.23;;;4.40;;
4616;SDS011;2321;42.704;23.384;2022-08-19T05:04:17;5.10;;;4.67;;
4616;SDS011;2321;42.704;23.384;2022-08-19T05:06:45;4.27;;;3.93;;
4616;SDS011;2321;42.704;23.384;2022-08-19T05:09:13;6.10;;;5.50;;
4616;SDS011;2321;42.704;23.384;2022-08-19T05:11:41;6.00;;;5.40;;
4616;SDS011;2321;42.704;23.384;2022-08-19T05:14:09;4.63;;;4.30;;
4616;SDS011;2321;42.704;23.384;2022-08-19T05:16:38;5.87;;;4.10;;
4616;SDS011;2321;42.704;23.384;2022-08-19T05:19:06;3.93;;;3.73;;
4616;SDS011;2321;42.704;23.384;2022-08-19T05:21:52;4.27;;;3.63;;
4616;SDS011;2321;42.704;23.384;2022-08-19T05:24:51;6.17;;;4.70;;
4616;SDS011;2321;42.704;23.384;2022-08-19T05:27:18;5.27;;;4.50;;
4616;SDS011;2321;42.704;23.384;2022-08-19T05:29:45;5.00;;;4.40;;
4616;SDS011;2321;42.704;23.384;2022-08-19T05:32:12;4.77;;;4.37;;
4616;SDS011;2321;42.704;23.384;2022-08-19T05:34:39;8.90;;;4.50;;
4616;SDS011;2321;42.704;23.384;2022-08-19T05:37:08;6.53;;;4.53;;
4616;SDS011;2321;42.704;23.384;2022-08-19T05:39:35;5.87;;;4.40;;
4616;SDS011;2321;42.704;23.384;2022-08-19T05:42:04;5.70;;;4.63;;
4616;SDS011;2321;42.704;23.384;2022-08-19T05:44:34;8.50;;;5.23;;
4616;SDS011;2321;42.704;23.384;2022-08-19T05:47:02;10.03;;;4.47;;
4616;SDS011;2321;42.704;23.384;2022-08-19T05:49:32;7.77;;;4.70;;
4616;SDS011;2321;42.704;23.384;2022-08-19T05:52:01;4.67;;;4.20;;
4616;SDS011;2321;42.704;23.384;2022-08-19T05:54:31;5.73;;;3.93;;
4616;SDS011;2321;42.704;23.384;2022-08-19T05:56:59;6.57;;;5.20;;
4616;SDS011;2321;42.704;23.384;2022-08-19T05:59:27;8.83;;;4.00;;
4616;SDS011;2321;42.704;23.384;2022-08-19T06:01:54;12.87;;;4.87;;
4616;SDS011;2321;42.704;23.384;2022-08-19T06:04:22;7.10;;;5.00;;
4616;SDS011;2321;42.704;23.384;2022-08-19T06:06:51;5.20;;;4.70;;
4616;SDS011;2321;42.704;23.384;2022-08-19T06:09:19;5.47;;;4.40;;
4616;SDS011;2321;42.704;23.384;2022-08-19T06:11:49;5.53;;;4.13;;
4616;SDS011;2321;42.704;23.384;2022-08-19T06:14:21;4.43;;;4.03;;
4616;SDS011;2321;42.704;23.384;2022-08-19T06:16:50;5.20;;;4.70;;
4616;SDS011;2321;42.704;23.384;2022-08-19T06:19:18;4.40;;;4.00;;
4616;SDS011;2321;42.704;23.384;2022-08-19T06:21:47;4.00;;;3.47;;
4616;SDS011;2321;42.704;23.384;2022-08-19T06:24:17;4.33;;;3.93;;
4616;SDS011;2321;42.704;23.384;2022-08-19T06:26:46;5.20;;;4.40;;
4616;SDS011;2321;42.704;23.384;2022-08-19T06:29:15;5.20;;;4.63;;
4616;SDS011;2321;42.704;23.384;2022-08-19T06:31:44;9.40;;;3.83;;
4616;SDS011;2321;42.704;23.384;2022-08-19T06:34:14;4.53;;;4.13;;
4616;SDS011;2321;42.704;23.384;2022-08-19T06:36:43;4.47;;;4.07;;
4616;SDS011;2321;42.704;23.384;2022-08-19T06:39:13;5.27;;;4.50;;
4616;SDS011;2321;42.704;23.384;2022-08-19T06:41:45;4.57;;;4.00;;
4616;SDS011;2321;42.704;23.384;2022-08-19T06:44:13;4.00;;;3.50;;
4616;SDS011;2321;42.704;23.384;2022-08-19T06:46:41;3.87;;;3.57;;
4616;SDS011;2321;42.704;23.384;2022-08-19T06:49:08;7.17;;;3.00;;
4616;SDS011;2321;42.704;23.384;2022-08-19T06:51:38;4.17;;;3.83;;
4616;SDS011;2321;42.704;23.384;2022-08-19T06:54:06;5.13;;;4.47;;
4616;SDS011;2321;42.704;23.384;2022-08-19T06:56:33;4.53;;;4.13;;
4616;SDS011;2321;42.704;23.384;2022-08-19T06:59:00;2.87;;;2.70;;
4616;SDS011;2321;42.704;23.384;2022-08-19T07:01:29;4.10;;;3.80;;
4616;SDS011;2321;42.704;23.384;2022-08-19T07:03:56;5.67;;;4.13;;
4616;SDS011;2321;42.704;23.384;2022-08-19T07:06:23;4.93;;;3.60;;
4616;SDS011;2321;42.704;23.384;2022-08-19T07:08:50;4.47;;;3.63;;
4616;SDS011;2321;42.704;23.384;2022-08-19T07:11:17;4.07;;;3.50;;
4616;SDS011;2321;42.704;23.384;2022-08-19T07:13:44;3.50;;;3.17;;
4616;SDS011;2321;42.704;23.384;2022-08-19T07:16:14;4.60;;;3.87;;
4616;SDS011;2321;42.704;23.384;2022-08-19T07:18:44;4.03;;;3.47;;
4616;SDS011;2321;42.704;23.384;2022-08-19T07:21:12;5.83;;;4.07;;
4616;SDS011;2321;42.704;23.384;2022-08-19T07:23:41;4.83;;;3.67;;
4616;SDS011;2321;42.704;23.384;2022-08-19T07:26:08;9.23;;;4.80;;
4616;SDS011;2321;42.704;23.384;2022-08-19T07:28:34;3.77;;;3.47;;
4616;SDS011;2321;42.704;23.384;2022-08-19T07:31:04;20.07;;;4.00;;
4616;SDS011;2321;42.704;23.384;2022-08-19T07:33:32;4.30;;;3.90;;
4616;SDS011;2321;42.704;23.384;2022-08-19T07:36:02;3.70;;;3.40;;
4616;SDS011;2321;42.704;23.384;2022-08-19T07:38:30;6.23;;;3.50;;
4616;SDS011;2321;42.704;23.384;2022-08-19T07:40:57;3.77;;;3.47;;
4616;SDS011;2321;42.704;23.384;2022-08-19T07:43:23;4.03;;;2.90;;
4616;SDS011;2321;42.704;23.384;2022-08-19T07:45:51;3.90;;;3.70;;
4616;SDS011;2321;42.704;23.384;2022-08-19T07:48:21;3.93;;;3.63;;
4616;SDS011;2321;42.704;23.384;2022-08-19T07:50:50;4.23;;;3.83;;
4616;SDS011;2321;42.704;23.384;2022-08-19T07:53:18;8.43;;;3.87;;
4616;SDS011;2321;42.704;23.384;2022-08-19T07:55:45;3.50;;;3.00;;
4616;SDS011;2321;42.704;23.384;2022-08-19T07:58:12;9.50;;;3.27;;
4616;SDS011;2321;42.704;23.384;2022-08-19T08:00:49;3.40;;;3.10;;
4616;SDS011;2321;42.704;23.384;2022-08-19T08:03:17;3.60;;;3.30;;
4616;SDS011;2321;42.704;23.384;2022-08-19T08:05:44;3.83;;;3.53;;
4616;SDS011;2321;42.704;23.384;2022-08-19T08:08:30;3.20;;;3.00;;
4616;SDS011;2321;42.704;23.384;2022-08-19T08:11:15;3.80;;;3.60;;
4616;SDS011;2321;42.704;23.384;2022-08-19T08:13:42;3.50;;;3.30;;
4616;SDS011;2321;42.704;23.384;2022-08-19T08:16:09;5.40;;;3.70;;
4616;SDS011;2321;42.704;23.384;2022-08-19T08:18:36;3.60;;;3.30;;
4616;SDS011;2321;42.704;23.384;2022-08-19T08:21:07;4.80;;;3.60;;
4616;SDS011;2321;42.704;23.384;2022-08-19T08:23:36;5.80;;;3.30;;
4616;SDS011;2321;42.704;23.384;2022-08-19T08:26:03;2.60;;;2.50;;
4616;SDS011;2321;42.704;23.384;2022-08-19T08:28:30;2.70;;;2.60;;
4616;SDS011;2321;42.704;23.384;2022-08-19T08:30:57;3.80;;;3.60;;
4616;SDS011;2321;42.704;23.384;2022-08-19T08:33:25;4.47;;;3.47;;
4616;SDS011;2321;42.704;23.384;2022-08-19T08:35:54;2.97;;;2.77;;
4616;SDS011;2321;42.704;23.384;2022-08-19T08:38:21;3.33;;;3.17;;
4616;SDS011;2321;42.704;23.384;2022-08-19T08:40:50;3.07;;;2.90;;
4616;SDS011;2321;42.704;23.384;2022-08-19T08:43:21;2.63;;;2.53;;
4616;SDS011;2321;42.704;23.384;2022-08-19T08:45:55;6.73;;;3.50;;
4616;SDS011;2321;42.704;23.384;2022-08-19T08:48:24;7.70;;;2.90;;
4616;SDS011;2321;42.704;23.384;2022-08-19T08:50:58;3.30;;;3.10;;
4616;SDS011;2321;42.704;23.384;2022-08-19T08:53:29;5.83;;;3.30;;
4616;SDS011;2321;42.704;23.384;2022-08-19T08:56:00;9.80;;;3.70;;
4616;SDS011;2321;42.704;23.384;2022-08-19T08:58:32;19.57;;;3.40;;
4616;SDS011;2321;42.704;23.384;2022-08-19T09:01:09;2.70;;;2.60;;
4616;SDS011;2321;42.704;23.384;2022-08-19T09:03:37;3.20;;;2.97;;
4616;SDS011;2321;42.704;23.384;2022-08-19T09:06:07;2.73;;;2.53;;
4616;SDS011;2321;42.704;23.384;2022-08-19T09:08:45;3.30;;;3.10;;
4616;SDS011;2321;42.704;23.384;2022-08-19T09:11:19;3.17;;;2.97;;
4616;SDS011;2321;42.704;23.384;2022-08-19T09:14:01;2.33;;;2.23;;
4616;SDS011;2321;42.704;23.384;2022-08-19T09:16:34;4.70;;;2.77;;
4616;SDS011;2321;42.704;23.384;2022-08-19T09:19:02;2.90;;;2.80;;
4616;SDS011;2321;42.704;23.384;2022-08-19T09:21:30;3.50;;;3.20;;
4616;SDS011;2321;42.704;23.384;2022-08-19T09:23:57;3.23;;;2.97;;
4616;SDS011;2321;42.704;23.384;2022-08-19T09:26:26;3.27;;;2.80;;
4616;SDS011;2321;42.704;23.384;2022-08-19T09:28:53;2.77;;;2.30;;
4616;SDS011;2321;42.704;23.384;2022-08-19T09:31:23;2.80;;;2.70;;
4616;SDS011;2321;42.704;23.384;2022-08-19T09:33:51;2.60;;;2.50;;
4616;SDS011;2321;42.704;23.384;2022-08-19T09:36:22;2.10;;;2.07;;
4616;SDS011;2321;42.704;23.384;2022-08-19T09:38:49;2.40;;;2.17;;
4616;SDS011;2321;42.704;23.384;2022-08-19T09:41:17;2.57;;;2.47;;
4616;SDS011;2321;42.704;23.384;2022-08-19T09:43:48;4.40;;;2.30;;
4616;SDS011;2321;42.704;23.384;2022-08-19T09:46:17;2.63;;;2.50;;
4616;SDS011;2321;42.704;23.384;2022-08-19T09:48:46;2.07;;;2.07;;
4616;SDS011;2321;42.704;23.384;2022-08-19T09:51:14;2.53;;;2.33;;
4616;SDS011;2321;42.704;23.384;2022-08-19T09:53:41;1.67;;;1.67;;
4616;SDS011;2321;42.704;23.384;2022-08-19T09:56:08;3.40;;;2.20;;
4616;SDS011;2321;42.704;23.384;2022-08-19T09:58:35;2.33;;;2.23;;
4616;SDS011;2321;42.704;23.384;2022-08-19T10:01:04;2.17;;;2.07;;
4616;SDS011;2321;42.704;23.384;2022-08-19T10:03:31;2.90;;;2.60;;
4616;SDS011;2321;42.704;23.384;2022-08-19T10:05:59;2.17;;;2.07;;
4616;SDS011;2321;42.704;23.384;2022-08-19T10:08:28;2.30;;;2.20;;
4616;SDS011;2321;42.704;23.384;2022-08-19T10:10:55;2.53;;;2.37;;
4616;SDS011;2321;42.704;23.384;2022-08-19T10:13:27;2.57;;;2.47;;
4616;SDS011;2321;42.704;23.384;2022-08-19T10:15:54;2.10;;;2.00;;
4616;SDS011;2321;42.704;23.384;2022-08-19T10:18:23;2.57;;;2.47;;
4616;SDS011;2321;42.704;23.384;2022-08-19T10:20:50;3.47;;;2.10;;
4616;SDS011;2321;42.704;23.384;2022-08-19T10:23:19;2.10;;;2.00;;
4616;SDS011;2321;42.704;23.384;2022-08-19T10:25:46;4.30;;;3.17;;
4616;SDS011;2321;42.704;23.384;2022-08-19T10:28:13;2.50;;;2.30;;
4616;SDS011;2321;42.704;23.384;2022-08-19T10:30:40;3.07;;;2.50;;
4616;SDS011;2321;42.704;23.384;2022-08-19T10:33:07;2.07;;;1.97;;
4616;SDS011;2321;42.704;23.384;2022-08-19T10:35:35;2.53;;;2.27;;
4616;SDS011;2321;42.704;23.384;2022-08-19T10:38:03;2.47;;;2.27;;
4616;SDS011;2321;42.704;23.384;2022-08-19T10:40:29;2.60;;;2.40;;
4616;SDS011;2321;42.704;23.384;2022-08-19T10:42:56;2.47;;;2.37;;
4616;SDS011;2321;42.704;23.384;2022-08-19T10:45:23;2.00;;;2.00;;
4616;SDS011;2321;42.704;23.384;2022-08-19T10:47:51;2.60;;;2.40;;
4616;SDS011;2321;42.704;23.384;2022-08-19T10:50:18;4.00;;;2.50;;
4616;SDS011;2321;42.704;23.384;2022-08-19T10:53:04;2.63;;;2.53;;
4616;SDS011;2321;42.704;23.384;2022-08-19T10:55:33;2.30;;;2.20;;
4616;SDS011;2321;42.704;23.384;2022-08-19T10:58:18;2.90;;;2.47;;
4616;SDS011;2321;42.704;23.384;2022-08-19T11:00:53;7.33;;;2.07;;
4616;SDS011;2321;42.704;23.384;2022-08-19T11:03:20;2.53;;;2.43;;
4616;SDS011;2321;42.704;23.384;2022-08-19T11:05:56;2.70;;;2.60;;
4616;SDS011;2321;42.704;23.384;2022-08-19T11:08:24;3.67;;;1.93;;
4616;SDS011;2321;42.704;23.384;2022-08-19T11:10:51;2.53;;;2.43;;
4616;SDS011;2321;42.704;23.384;2022-08-19T11:13:25;2.30;;;2.20;;
4616;SDS011;2321;42.704;23.384;2022-08-19T11:15:59;2.33;;;2.20;;
4616;SDS011;2321;42.704;23.384;2022-08-19T11:18:26;2.53;;;2.33;;
4616;SDS011;2321;42.704;23.384;2022-08-19T11:20:53;2.73;;;2.63;;
4616;SDS011;2321;42.704;23.384;2022-08-19T11:23:20;3.10;;;2.83;;
4616;SDS011;2321;42.704;23.384;2022-08-19T11:25:48;3.60;;;3.30;;
4616;SDS011;2321;42.704;23.384;2022-08-19T11:28:15;2.40;;;2.30;;
4616;SDS011;2321;42.704;23.384;2022-08-19T11:30:42;2.30;;;2.20;;
4616;SDS011;2321;42.704;23.384;2022-08-19T11:33:08;2.43;;;2.23;;
4616;SDS011;2321;42.704;23.384;2022-08-19T11:35:38;3.00;;;2.80;;
4616;SDS011;2321;42.704;23.384;2022-08-19T11:38:04;2.97;;;2.77;;
4616;SDS011;2321;42.704;23.384;2022-08-19T11:40:31;2.37;;;1.97;;
4616;SDS011;2321;42.704;23.384;2022-08-19T11:42:59;2.10;;;2.00;;
4616;SDS011;2321;42.704;23.384;2022-08-19T11:45:26;2.80;;;2.70;;
4616;SDS011;2321;42.704;23.384;2022-08-19T11:47:54;2.00;;;2.00;;
4616;SDS011;2321;42.704;23.384;2022-08-19T11:50:21;2.70;;;2.53;;
4616;SDS011;2321;42.704;23.384;2022-08-19T11:52:48;2.53;;;2.43;;
4616;SDS011;2321;42.704;23.384;2022-08-19T11:55:15;2.83;;;2.63;;
4616;SDS011;2321;42.704;23.384;2022-08-19T11:57:42;2.80;;;2.70;;
4616;SDS011;2321;42.704;23.384;2022-08-19T12:00:11;3.80;;;3.47;;
4616;SDS011;2321;42.704;23.384;2022-08-19T12:02:38;2.80;;;2.70;;
4616;SDS011;2321;42.704;23.384;2022-08-19T12:05:05;2.80;;;2.70;;
4616;SDS011;2321;42.704;23.384;2022-08-19T12:07:33;3.47;;;2.80;;
4616;SDS011;2321;42.704;23.384;2022-08-19T12:09:59;3.30;;;3.00;;
4616;SDS011;2321;42.704;23.384;2022-08-19T12:12:27;2.60;;;2.50;;
4616;SDS011;2321;42.704;23.384;2022-08-19T12:14:54;2.60;;;2.40;;
4616;SDS011;2321;42.704;23.384;2022-08-19T12:17:24;2.90;;;2.80;;
4616;SDS011;2321;42.704;23.384;2022-08-19T12:19:52;2.47;;;2.37;;
4616;SDS011;2321;42.704;23.384;2022-08-19T12:22:19;2.90;;;2.70;;
4616;SDS011;2321;42.704;23.384;2022-08-19T12:24:45;2.73;;;2.53;;
4616;SDS011;2321;42.704;23.384;2022-08-19T12:27:13;2.77;;;2.67;;
4616;SDS011;2321;42.704;23.384;2022-08-19T12:29:39;2.67;;;2.57;;
4616;SDS011;2321;42.704;23.384;2022-08-19T12:32:06;2.50;;;2.40;;
4616;SDS011;2321;42.704;23.384;2022-08-19T12:34:35;3.20;;;2.90;;
4616;SDS011;2321;42.704;23.384;2022-08-19T12:37:03;2.63;;;2.43;;
4616;SDS011;2321;42.704;23.384;2022-08-19T12:39:33;2.30;;;2.20;;
4616;SDS011;2321;42.704;23.384;2022-08-19T12:42:00;2.77;;;2.60;;
4616;SDS011;2321;42.704;23.384;2022-08-19T12:44:26;2.50;;;2.30;;
4616;SDS011;2321;42.704;23.384;2022-08-19T12:46:53;2.60;;;2.50;;
4616;SDS011;2321;42.704;23.384;2022-08-19T12:49:20;3.00;;;2.90;;
4616;SDS011;2321;42.704;23.384;2022-08-19T12:51:48;3.47;;;2.80;;
4616;SDS011;2321;42.704;23.384;2022-08-19T12:54:15;3.00;;;2.90;;
4616;SDS011;2321;42.704;23.384;2022-08-19T12:56:41;2.70;;;2.60;;
4616;SDS011;2321;42.704;23.384;2022-08-19T12:59:08;2.47;;;2.33;;
4616;SDS011;2321;42.704;23.384;2022-08-19T13:01:36;2.80;;;2.67;;
4616;SDS011;2321;42.704;23.384;2022-08-19T13:04:03;2.83;;;2.73;;
4616;SDS011;2321;42.704;23.384;2022-08-19T13:06:30;3.47;;;3.17;;
4616;SDS011;2321;42.704;23.384;2022-08-19T13:08:58;2.70;;;2.60;;
4616;SDS011;2321;42.704;23.384;2022-08-19T13:11:24;2.73;;;2.63;;
4616;SDS011;2321;42.704;23.384;2022-08-19T13:13:51;3.53;;;2.93;;
4616;SDS011;2321;42.704;23.384;2022-08-19T13:16:20;3.20;;;3.00;;
4616;SDS011;2321;42.704;23.384;2022-08-19T13:18:47;2.73;;;2.63;;
4616;SDS011;2321;42.704;23.384;2022-08-19T13:21:14;2.40;;;2.30;;
4616;SDS011;2321;42.704;23.384;2022-08-19T13:23:41;2.30;;;2.20;;
4616;SDS011;2321;42.704;23.384;2022-08-19T13:26:09;2.83;;;2.73;;
4616;SDS011;2321;42.704;23.384;2022-08-19T13:28:36;3.00;;;2.90;;
4616;SDS011;2321;42.704;23.384;2022-08-19T13:31:21;2.77;;;2.67;;
4616;SDS011;2321;42.704;23.384;2022-08-19T13:34:05;2.90;;;2.70;;
4616;SDS011;2321;42.704;23.384;2022-08-19T13:36:32;2.90;;;2.80;;
4616;SDS011;2321;42.704;23.384;2022-08-19T13:38:59;3.40;;;3.30;;
4616;SDS011;2321;42.704;23.384;2022-08-19T13:41:27;2.87;;;2.77;;
4616;SDS011;2321;42.704;23.384;2022-08-19T13:43:54;3.27;;;3.07;;
4616;SDS011;2321;42.704;23.384;2022-08-19T13:46:21;2.27;;;2.17;;
4616;SDS011;2321;42.704;23.384;2022-08-19T13:48:47;4.80;;;3.33;;
4616;SDS011;2321;42.704;23.384;2022-08-19T13:51:15;2.57;;;2.40;;
4616;SDS011;2321;42.704;23.384;2022-08-19T13:53:42;2.77;;;2.63;;
4616;SDS011;2321;42.704;23.384;2022-08-19T13:56:11;3.13;;;2.93;;
4616;SDS011;2321;42.704;23.384;2022-08-19T13:58:39;3.00;;;2.80;;
4616;SDS011;2321;42.704;23.384;2022-08-19T14:01:06;2.57;;;2.50;;
4616;SDS011;2321;42.704;23.384;2022-08-19T14:03:33;2.13;;;2.03;;
4616;SDS011;2321;42.704;23.384;2022-08-19T14:06:00;2.90;;;2.80;;
4616;SDS011;2321;42.704;23.384;2022-08-19T14:08:27;4.53;;;2.70;;
4616;SDS011;2321;42.704;23.384;2022-08-19T14:10:57;3.30;;;3.00;;
4616;SDS011;2321;42.704;23.384;2022-08-19T14:13:24;3.40;;;3.20;;
4616;SDS011;2321;42.704;23.384;2022-08-19T14:15:52;2.57;;;2.47;;
4616;SDS011;2321;42.704;23.384;2022-08-19T14:18:19;5.10;;;2.90;;
4616;SDS011;2321;42.704;23.384;2022-08-19T14:20:46;2.93;;;2.40;;
4616;SDS011;2321;42.704;23.384;2022-08-19T14:23:13;3.27;;;2.97;;
4616;SDS011;2321;42.704;23.384;2022-08-19T14:25:39;3.33;;;3.03;;
4616;SDS011;2321;42.704;23.384;2022-08-19T14:28:06;3.20;;;2.90;;
4616;SDS011;2321;42.704;23.384;2022-08-19T14:30:34;3.90;;;2.93;;
4616;SDS011;2321;42.704;23.384;2022-08-19T14:33:04;2.37;;;2.30;;
4616;SDS011;2321;42.704;23.384;2022-08-19T14:35:32;2.83;;;2.40;;
4616;SDS011;2321;42.704;23.384;2022-08-19T14:37:59;2.50;;;2.40;;
4616;SDS011;2321;42.704;23.384;2022-08-19T14:40:27;2.73;;;2.63;;
4616;SDS011;2321;42.704;23.384;2022-08-19T14:42:55;4.90;;;2.40;;
4616;SDS011;2321;42.704;23.384;2022-08-19T14:45:24;4.93;;;3.07;;
4616;SDS011;2321;42.704;23.384;2022-08-19T14:47:51;3.80;;;3.50;;
4616;SDS011;2321;42.704;23.384;2022-08-19T14:50:20;6.93;;;2.90;;
4616;SDS011;2321;42.704;23.384;2022-08-19T14:52:47;2.87;;;2.77;;
4616;SDS011;2321;42.704;23.384;2022-08-19T14:55:15;2.13;;;2.13;;
4616;SDS011;2321;42.704;23.384;2022-08-19T14:57:42;2.70;;;2.60;;
4616;SDS011;2321;42.704;23.384;2022-08-19T15:00:11;6.50;;;2.63;;
4616;SDS011;2321;42.704;23.384;2022-08-19T15:02:39;5.77;;;3.07;;
4616;SDS011;2321;42.704;23.384;2022-08-19T15:05:06;6.00;;;3.00;;
4616;SDS011;2321;42.704;23.384;2022-08-19T15:07:35;3.53;;;3.10;;